createdAt,value
2019-02-07T00:02:35.306Z,9.00
2019-02-07T00:07:36.577Z,8.70
2019-02-07T00:12:37.944Z,8.80
2019-02-07T00:17:39.169Z,8.80
2019-02-07T00:22:40.624Z,8.40
2019-02-07T00:27:42.070Z,8.40
2019-02-07T00:32:43.915Z,8.20
2019-02-07T00:37:45.264Z,8.00
2019-02-07T00:42:47.310Z,8.10
2019-02-07T00:47:51.152Z,7.90
2019-02-07T00:52:52.507Z,8.10
2019-02-07T00:57:54.158Z,8.30
2019-02-07T01:02:55.512Z,8.00
2019-02-07T01:07:56.743Z,8.10
2019-02-07T01:12:58.115Z,8.10
2019-02-07T01:17:59.649Z,7.80
2019-02-07T01:23:00.888Z,7.60
2019-02-07T01:28:02.868Z,7.60
2019-02-07T01:33:04.215Z,7.90
2019-02-07T01:38:05.879Z,8.30
2019-02-07T01:43:07.141Z,8.20
2019-02-07T01:48:08.388Z,8.50
2019-02-07T01:53:09.620Z,8.90
2019-02-07T01:58:10.863Z,9.40
2019-02-07T02:03:12.116Z,10.00
2019-02-07T02:08:13.460Z,9.90
2019-02-07T02:13:14.801Z,9.70
2019-02-07T02:18:16.047Z,9.20
2019-02-07T02:23:17.531Z,9.30
2019-02-07T02:28:19.184Z,8.90
2019-02-07T02:33:20.517Z,8.90
2019-02-07T02:38:21.760Z,8.90
2019-02-07T02:43:23.100Z,9.10
2019-02-07T02:48:24.345Z,9.30
2019-02-07T02:53:25.593Z,9.40
2019-02-07T02:58:26.913Z,9.60
2019-02-07T03:03:30.808Z,9.80
2019-02-07T03:08:34.179Z,9.80
2019-02-07T03:13:49.416Z,10.30
2019-02-07T03:19:09.446Z,10.10
2019-02-07T03:24:12.606Z,10.10
2019-02-07T03:29:15.766Z,9.80
2019-02-07T03:34:28.015Z,9.50
2019-02-07T03:39:31.196Z,9.30
2019-02-07T03:44:43.802Z,9.50
2019-02-07T03:50:03.965Z,8.90
2019-02-07T03:55:13.006Z,9.20
2019-02-07T04:00:31.569Z,8.70
2019-02-07T04:05:35.029Z,8.40
2019-02-07T04:10:43.182Z,8.00
2019-02-07T04:15:54.933Z,7.80
2019-02-07T04:21:10.283Z,7.90
2019-02-07T04:26:19.597Z,8.50
2019-02-07T04:31:34.766Z,8.70
2019-02-07T04:36:37.906Z,9.10
2019-02-07T04:41:57.689Z,9.10
2019-02-07T04:47:19.213Z,9.30
2019-02-07T04:52:40.371Z,8.70
2019-02-07T04:57:46.543Z,8.10
2019-02-07T05:02:49.711Z,8.40
2019-02-07T05:07:52.863Z,8.60
2019-02-07T05:12:58.693Z,8.60
2019-02-07T05:18:11.100Z,8.80
2019-02-07T05:23:26.717Z,8.20
2019-02-07T05:28:29.841Z,8.00
2019-02-07T05:33:36.266Z,8.00
2019-02-07T05:38:42.166Z,7.80
2019-02-07T05:44:03.641Z,7.90
2019-02-07T05:49:15.497Z,8.00
2019-02-07T05:54:30.908Z,8.00
2019-02-07T05:59:34.068Z,8.10
2019-02-07T06:04:55.770Z,7.90
2019-02-07T06:09:58.930Z,7.90
2019-02-07T06:15:17.360Z,7.70
2019-02-07T06:20:26.844Z,7.70
2019-02-07T06:25:30.083Z,7.60
2019-02-07T06:30:39.139Z,7.70
2019-02-07T06:35:44.968Z,7.70
2019-02-07T06:40:50.753Z,7.70
2019-02-07T06:45:54.440Z,7.70
2019-02-07T06:51:03.625Z,7.60
2019-02-07T06:56:23.780Z,7.60
2019-02-07T07:01:36.171Z,7.60
2019-02-07T07:06:42.321Z,7.60
2019-02-07T07:11:45.489Z,7.50
2019-02-07T07:17:07.543Z,7.40
2019-02-07T07:22:13.937Z,7.50
2019-02-07T07:27:33.933Z,7.70
2019-02-07T07:32:53.517Z,8.00
2019-02-07T07:37:59.596Z,8.10
2019-02-07T07:43:05.364Z,7.70
2019-02-07T07:48:14.647Z,7.80
2019-02-07T07:53:23.834Z,7.80
2019-02-07T07:58:43.859Z,7.80
2019-02-07T08:03:52.980Z,8.20
2019-02-07T08:14:17.206Z,8.30
2019-02-07T08:19:26.427Z,8.40
2019-02-07T08:24:33.017Z,8.60
2019-02-07T08:35:11.117Z,8.30
2019-02-07T08:40:23.719Z,8.10
2019-02-07T08:45:26.983Z,8.40
2019-02-07T08:50:45.072Z,8.80
2019-02-07T08:56:03.311Z,9.00
2019-02-07T09:01:06.496Z,9.10
2019-02-07T09:06:12.712Z,8.40
2019-02-07T09:11:27.817Z,8.40
2019-02-07T09:16:36.710Z,8.30
2019-02-07T09:21:49.199Z,8.40
2019-02-07T09:26:55.219Z,9.70
2019-02-07T09:32:15.276Z,10.60
2019-02-07T09:37:18.435Z,11.50
2019-02-07T09:42:33.563Z,11.10
2019-02-07T09:47:45.496Z,11.70
2019-02-07T09:52:54.895Z,12.00
2019-02-07T09:58:00.707Z,11.40
2019-02-07T10:03:16.079Z,12.30
2019-02-07T10:08:35.693Z,11.70
2019-02-07T10:13:44.911Z,12.20
2019-02-07T10:18:48.067Z,12.60
2019-02-07T10:24:08.085Z,13.20
2019-02-07T10:29:14.104Z,12.70
2019-02-07T10:34:23.191Z,12.30
2019-02-07T10:39:26.754Z,13.30
2019-02-07T10:44:37.289Z,12.70
2019-02-07T10:49:58.872Z,13.70
2019-02-07T10:55:10.913Z,14.20
2019-02-07T11:00:26.492Z,11.20
2019-02-07T11:05:32.854Z,10.80
2019-02-07T11:10:52.803Z,11.70
2019-02-07T11:16:16.676Z,10.90
2019-02-07T11:21:19.991Z,11.50
2019-02-07T11:26:32.128Z,10.60
2019-02-07T11:31:38.471Z,11.10
2019-02-07T11:36:54.555Z,11.40
2019-02-07T11:42:06.550Z,10.40
2019-02-07T11:47:09.817Z,10.80
2019-02-07T11:52:28.467Z,11.10
2019-02-07T11:57:31.718Z,11.10
2019-02-07T12:02:43.880Z,11.70
2019-02-07T12:07:52.755Z,12.40
2019-02-07T12:13:01.943Z,11.90
2019-02-07T12:18:14.834Z,13.00
2019-02-07T12:23:24.436Z,13.30
2019-02-07T12:28:37.090Z,13.00
2019-02-07T12:33:49.143Z,13.50
2019-02-07T12:38:55.219Z,13.60
2019-02-07T12:44:13.623Z,14.00
2019-02-07T12:49:29.632Z,13.80
2019-02-07T12:54:47.970Z,13.80
2019-02-07T13:00:10.071Z,13.70
2019-02-07T13:05:27.456Z,12.70
2019-02-07T13:10:33.245Z,12.60
2019-02-07T13:15:39.432Z,13.00
2019-02-07T13:20:45.527Z,12.30
2019-02-07T13:25:54.835Z,12.60
2019-02-07T13:31:16.535Z,13.20
2019-02-07T13:36:36.153Z,14.60
2019-02-07T13:41:42.013Z,13.50
2019-02-07T13:46:50.928Z,11.90
2019-02-07T13:51:54.262Z,11.70
2019-02-07T13:57:14.166Z,11.70
2019-02-07T14:02:20.364Z,11.70
2019-02-07T14:07:26.503Z,12.10
2019-02-07T14:12:46.504Z,11.20
2019-02-07T14:17:50.043Z,10.50
2019-02-07T14:22:53.251Z,11.10
2019-02-07T14:28:11.700Z,11.20
2019-02-07T14:33:14.865Z,10.60
2019-02-07T14:38:20.876Z,11.60
2019-02-07T14:43:41.073Z,11.20
2019-02-07T14:48:45.199Z,11.50
2019-02-07T14:53:46.103Z,11.70
2019-02-07T14:58:47.374Z,11.80
2019-02-07T15:03:48.668Z,11.90
2019-02-07T15:08:49.907Z,12.20
2019-02-07T15:13:52.061Z,12.70
2019-02-07T15:18:53.343Z,13.90
2019-02-07T15:23:54.590Z,13.90
2019-02-07T15:28:56.228Z,14.10
2019-02-07T15:33:57.484Z,13.70
2019-02-07T15:38:58.733Z,13.50
2019-02-07T15:44:00.335Z,13.10
2019-02-07T15:49:01.712Z,12.90
2019-02-07T15:54:04.087Z,12.80
2019-02-07T15:59:07.462Z,13.20
2019-02-07T16:04:14.106Z,13.60
2019-02-07T16:09:15.778Z,13.50
2019-02-07T16:14:17.432Z,13.80
2019-02-07T16:19:18.685Z,15.10
2019-02-07T16:24:20.011Z,15.20
2019-02-07T16:29:21.564Z,15.60
2019-02-07T16:34:23.240Z,15.50
2019-02-07T16:39:25.508Z,15.60
2019-02-07T16:44:26.956Z,15.60
2019-02-07T16:49:28.198Z,15.70
2019-02-07T16:54:29.553Z,15.40
2019-02-07T16:59:31.208Z,15.50
2019-02-07T17:04:32.456Z,15.30
2019-02-07T17:09:35.742Z,15.50
2019-02-07T17:14:37.207Z,15.20
2019-02-07T17:19:38.472Z,15.00
2019-02-07T17:24:39.845Z,14.80
2019-02-07T17:29:44.083Z,14.50
2019-02-07T17:34:45.318Z,14.10
2019-02-07T17:39:46.684Z,13.80
2019-02-07T17:44:48.168Z,13.70
2019-02-07T17:49:49.462Z,13.90
2019-02-07T17:54:52.645Z,14.10
2019-02-07T17:59:54.114Z,14.40
2019-02-07T18:04:55.470Z,14.20
2019-02-07T18:09:57.269Z,13.80
2019-02-07T18:14:58.539Z,13.20
2019-02-07T18:19:59.819Z,12.70
2019-02-07T18:25:01.236Z,11.70
2019-02-07T18:30:13.966Z,11.20
2019-02-07T18:35:17.150Z,9.60
2019-02-07T18:40:28.014Z,9.90
2019-02-07T18:45:29.409Z,10.20
2019-02-07T18:50:35.379Z,9.70
2019-02-07T18:55:36.628Z,10.20
2019-02-07T19:00:38.109Z,10.40
2019-02-07T19:05:39.379Z,9.80
2019-02-07T19:10:41.267Z,10.40
2019-02-07T19:15:50.625Z,11.10
2019-02-07T19:20:51.908Z,10.80
2019-02-07T19:25:53.556Z,10.20
2019-02-07T19:30:54.805Z,8.80
2019-02-07T19:35:56.027Z,8.40
2019-02-07T19:40:57.253Z,8.10
2019-02-07T19:45:58.486Z,8.20
2019-02-07T19:50:59.745Z,8.30
2019-02-07T19:56:01.176Z,8.30
2019-02-07T20:01:04.099Z,8.50
2019-02-07T20:06:05.520Z,8.70
2019-02-07T20:11:06.933Z,8.90
2019-02-07T20:16:08.594Z,9.60
2019-02-07T20:21:09.985Z,9.30
2019-02-07T20:26:11.343Z,9.10
2019-02-07T20:31:12.600Z,8.80
2019-02-07T20:36:13.871Z,8.90
2019-02-07T20:41:15.139Z,8.70
2019-02-07T20:46:16.419Z,8.70
2019-02-07T20:51:17.829Z,8.60
2019-02-07T20:56:19.523Z,9.70
2019-02-07T21:01:21.076Z,9.00
2019-02-07T21:06:22.846Z,8.70
2019-02-07T21:11:24.330Z,8.30
2019-02-07T21:16:26.001Z,8.20
2019-02-07T21:21:27.962Z,8.20
2019-02-07T21:26:29.320Z,8.40
2019-02-07T21:31:30.787Z,8.80
2019-02-07T21:36:32.558Z,9.50
2019-02-07T21:41:34.007Z,9.80
2019-02-07T21:46:35.352Z,10.80
2019-02-07T21:51:36.693Z,11.50
2019-02-07T21:56:37.931Z,11.80
2019-02-07T22:01:39.226Z,11.60
2019-02-07T22:06:40.539Z,11.30
2019-02-07T22:11:41.824Z,10.70
2019-02-07T22:16:43.090Z,10.50
2019-02-07T22:21:44.363Z,10.00
2019-02-07T22:26:45.605Z,10.10
2019-02-07T22:31:46.858Z,9.60
2019-02-07T22:36:48.104Z,9.30
2019-02-07T22:41:49.349Z,8.90
2019-02-07T22:46:51.052Z,9.00
2019-02-07T22:51:52.306Z,9.30
2019-02-07T22:56:53.596Z,9.30
2019-02-07T23:01:55.562Z,9.30
2019-02-07T23:06:56.842Z,9.50
2019-02-07T23:11:58.074Z,9.90
2019-02-07T23:16:59.428Z,10.50
2019-02-07T23:22:00.944Z,11.60
2019-02-07T23:27:03.626Z,12.10
2019-02-07T23:32:04.890Z,12.60
2019-02-07T23:37:06.230Z,12.80
2019-02-07T23:42:07.688Z,13.40
2019-02-07T23:47:09.024Z,14.00
2019-02-07T23:52:10.286Z,14.60
2019-02-07T23:57:11.614Z,15.20
